Time;durP1;ratioP1;P1;durP2;ratioP2;P2;SDS_P1;SDS_P2;PMS_P1;PMS_P2;Temp;Humidity;BMP_temperature;BMP_pressure;BME280_temperature;BME280_humidity;BME280_pressure;Samples;Min_cycle;Max_cycle;Signal;HPM_P1;HPM_P2
2021/09/28 00:01:33;;;;;;;2.90;2.00;;;;;;;8.63;100.00;101144.59;21070664;27;20582;-58
2021/09/28 00:11:37;;;;;;;3.17;2.87;;;;;;;8.56;100.00;101149.31;21048307;27;20638;-58
2021/09/28 00:21:39;;;;;;;2.23;2.13;;;;;;;8.50;100.00;101148.69;21065591;27;20634;-58
2021/09/28 00:31:43;;;;;;;2.47;2.27;;;;;;;8.39;100.00;101151.81;20988790;28;20229;-58
2021/09/28 00:41:45;;;;;;;3.63;2.20;;;;;;;8.34;100.00;101155.56;21072412;27;20260;-57
2021/09/28 00:51:49;;;;;;;2.13;2.03;;;;;;;8.12;100.00;101132.50;21084187;27;20236;-58
2021/09/28 01:01:51;;;;;;;2.47;2.27;;;;;;;8.15;100.00;101147.47;21133192;27;20237;-58
2021/09/28 01:11:55;;;;;;;2.23;2.03;;;;;;;8.12;100.00;101137.81;21082912;27;20224;-59
2021/09/28 01:21:59;;;;;;;2.10;2.00;;;;;;;8.06;100.00;101138.09;21081960;27;20723;-58
2021/09/28 01:32:01;;;;;;;2.07;1.80;;;;;;;7.99;100.00;101136.59;21081460;27;20257;-58
2021/09/28 01:42:05;;;;;;;2.10;1.90;;;;;;;8.02;100.00;101125.84;21079594;27;20228;-58
2021/09/28 01:52:08;;;;;;;2.10;2.00;;;;;;;7.98;100.00;101134.88;21078992;27;20229;-58
2021/09/28 02:02:12;;;;;;;2.10;1.90;;;;;;;7.90;100.00;101131.66;21078748;27;20233;-58
2021/09/28 02:12:14;;;;;;;2.47;1.87;;;;;;;7.92;100.00;101135.13;21077661;27;20637;-58
2021/09/28 02:22:18;;;;;;;2.27;1.93;;;;;;;7.92;100.00;101125.38;21033423;27;20232;-58
2021/09/28 02:32:20;;;;;;;3.00;1.70;;;;;;;7.90;100.00;101134.31;21003025;27;20646;-59
2021/09/28 02:42:24;;;;;;;1.97;1.87;;;;;;;7.83;100.00;101135.50;20991093;28;20280;-58
2021/09/28 02:52:26;;;;;;;2.27;2.07;;;;;;;7.68;100.00;101136.97;21003304;27;20235;-58
2021/09/28 03:02:30;;;;;;;2.30;1.93;;;;;;;7.51;100.00;101134.94;21072666;27;20257;-58
2021/09/28 03:12:32;;;;;;;1.90;1.80;;;;;;;7.45;100.00;101124.59;21117509;27;20249;-58
2021/09/28 03:22:36;;;;;;;2.03;1.93;;;;;;;7.32;100.00;101127.75;21072142;27;20686;-58
2021/09/28 03:32:38;;;;;;;1.90;1.80;;;;;;;7.26;100.00;101128.84;21071874;27;20718;-58
2021/09/28 03:42:42;;;;;;;3.20;3.00;;;;;;;7.22;100.00;101121.94;21070813;27;20657;-58
2021/09/28 03:52:44;;;;;;;5.00;4.60;;;;;;;7.18;100.00;101125.63;21070368;27;20314;-57
2021/09/28 04:02:48;;;;;;;4.97;4.57;;;;;;;7.09;100.00;101134.81;21070505;27;20230;-58
2021/09/28 04:12:50;;;;;;;4.97;4.57;;;;;;;7.05;100.00;101129.66;21134556;27;20762;-61
2021/09/28 04:22:54;;;;;;;4.40;4.10;;;;;;;6.97;100.00;101142.34;21079411;27;20266;-58
2021/09/28 04:32:56;;;;;;;3.60;3.40;;;;;;;6.90;100.00;101151.44;21002040;28;20230;-57
2021/09/28 04:43:00;;;;;;;3.20;3.00;;;;;;;6.93;100.00;101162.81;21053384;27;20293;-58
2021/09/28 04:53:02;;;;;;;2.60;2.40;;;;;;;6.96;100.00;101169.78;21083956;27;20234;-59
2021/09/28 05:03:06;;;;;;;2.40;2.20;;;;;;;7.05;100.00;101169.47;21053122;27;20226;-58
2021/09/28 05:13:08;;;;;;;2.50;2.30;;;;;;;7.26;100.00;101187.25;21052551;27;20232;-58
2021/09/28 05:23:12;;;;;;;1.97;1.87;;;;;;;7.56;100.00;101196.75;21080312;27;20713;-58
2021/09/28 05:33:15;;;;;;;3.33;1.87;;;;;;;7.95;100.00;101209.44;21066475;27;20663;-61
2021/09/28 05:43:18;;;;;;;1.67;1.57;;;;;;;8.27;100.00;101216.97;20996323;28;20241;-61
2021/09/28 05:53:21;;;;;;;1.77;1.50;;;;;;;8.59;100.00;101233.44;20994623;28;20234;-62
2021/09/28 06:03:24;;;;;;;1.10;1.10;;;;;;;8.97;100.00;101266.44;20995012;28;20226;-61
2021/09/28 06:13:27;;;;;;;1.23;1.13;;;;;;;9.38;100.00;101269.97;20994120;27;20330;-62
2021/09/28 06:23:30;;;;;;;3.40;1.37;;;;;;;9.78;100.00;101268.19;20993539;28;20249;-60
2021/09/28 06:33:33;;;;;;;1.40;1.30;;;;;;;10.25;100.00;101285.53;20992508;28;20287;-61
2021/09/28 06:43:36;;;;;;;1.97;1.77;;;;;;;10.72;100.00;101285.91;20991950;28;20604;-61
2021/09/28 06:53:39;;;;;;;1.60;1.50;;;;;;;11.13;100.00;101297.16;20991149;28;20715;-62
2021/09/28 07:03:42;;;;;;;3.77;2.67;;;;;;;11.49;100.00;101301.53;20990323;28;20274;-63
2021/09/28 07:13:45;;;;;;;1.50;1.40;;;;;;;11.81;100.00;101308.78;20987899;28;20712;-65
2021/09/28 07:23:48;;;;;;;1.90;1.70;;;;;;;12.13;100.00;101316.84;20988890;28;20733;-61
2021/09/28 07:33:51;;;;;;;1.47;1.37;;;;;;;12.45;100.00;101329.31;20988623;28;20740;-61
2021/09/28 07:43:55;;;;;;;2.37;1.27;;;;;;;12.74;100.00;101329.47;20988030;28;20276;-61
2021/09/28 07:53:57;;;;;;;1.20;1.20;;;;;;;13.00;100.00;101334.22;20986944;28;20223;-61
2021/09/28 08:04:01;;;;;;;1.47;1.00;;;;;;;13.31;100.00;101331.47;20987236;28;20644;-61
2021/09/28 08:14:03;;;;;;;1.20;1.10;;;;;;;13.64;100.00;101333.94;20986279;28;20292;-61
2021/09/28 08:24:08;;;;;;;1.20;1.10;;;;;;;13.99;100.00;101342.53;20985922;28;20256;-61
2021/09/28 08:34:12;;;;;;;2.10;0.97;;;;;;;14.24;100.00;101354.41;20985502;28;20655;-61
2021/09/28 08:44:17;;;;;;;1.10;1.10;;;;;;;14.53;100.00;101357.94;20985061;28;20235;-61
2021/09/28 08:54:20;;;;;;;1.87;1.10;;;;;;;14.88;100.00;101358.34;20984774;28;20719;-63
2021/09/28 09:04:25;;;;;;;1.77;0.90;;;;;;;15.14;100.00;101352.09;20990278;28;20296;-61
2021/09/28 09:14:28;;;;;;;1.00;1.00;;;;;;;15.39;100.00;101354.88;20998906;28;20277;-62
2021/09/28 09:24:46;;;;;;;1.20;1.10;;;;;;;15.64;100.00;101347.84;20997841;28;20237;-61
2021/09/28 09:34:54;;;;;;;1.37;1.10;;;;;;;15.84;100.00;101350.88;20997353;28;20245;-68
2021/09/28 09:44:58;;;;;;;1.13;1.03;;;;;;;15.87;100.00;101357.88;20996586;28;20609;-60
2021/09/28 09:55:00;;;;;;;1.23;1.13;;;;;;;16.33;100.00;101352.78;20995784;28;20284;-61
2021/09/28 10:05:05;;;;;;;1.40;1.30;;;;;;;16.87;100.00;101365.94;20994841;28;20223;-62
2021/09/28 10:15:12;;;;;;;1.37;1.13;;;;;;;17.24;100.00;101358.66;20993561;28;20226;-61
2021/09/28 10:25:42;;;;;;;2.83;1.13;;;;;;;17.23;89.18;101359.63;20992776;28;20235;-60
2021/09/28 10:35:54;;;;;;;1.37;1.20;;;;;;;17.33;100.00;101365.19;20992477;28;20271;-61
2021/09/28 10:46:00;;;;;;;1.50;1.20;;;;;;;17.42;100.00;101368.06;20991481;28;20236;-60
2021/09/28 10:56:04;;;;;;;1.00;0.97;;;;;;;17.62;100.00;101356.59;20990530;28;20223;-60
2021/09/28 11:06:09;;;;;;;1.23;1.10;;;;;;;17.72;100.00;101355.91;20989926;28;20238;-59
2021/09/28 11:16:12;;;;;;;2.30;1.10;;;;;;;18.01;100.00;101351.78;20989192;28;20320;-59
2021/09/28 11:26:16;;;;;;;1.23;1.13;;;;;;;18.17;100.00;101338.78;20987737;28;20294;-60
2021/09/28 11:36:19;;;;;;;1.10;1.10;;;;;;;18.08;100.00;101346.78;20987997;28;20227;-62
2021/09/28 11:46:23;;;;;;;2.23;1.17;;;;;;;18.19;100.00;101349.47;20987143;28;20250;-60
2021/09/28 11:56:31;;;;;;;1.23;0.97;;;;;;;18.27;100.00;101347.88;20986814;28;20227;-60
2021/09/28 12:06:47;;;;;;;4.77;1.20;;;;;;;18.25;100.00;101344.41;20984976;28;20231;-60
2021/09/28 12:16:49;;;;;;;1.73;1.10;;;;;;;18.08;100.00;101339.53;20986394;28;20233;-59
2021/09/28 12:26:53;;;;;;;1.23;1.13;;;;;;;18.07;100.00;101345.03;20985615;28;20226;-60
2021/09/28 12:37:03;;;;;;;1.20;1.20;;;;;;;18.03;91.83;101338.16;20989554;28;20247;-60
2021/09/28 12:47:26;;;;;;;1.10;1.10;;;;;;;17.96;79.88;101341.34;21000588;28;20233;-66
2021/09/28 12:57:28;;;;;;;1.37;1.27;;;;;;;17.94;100.00;101355.97;21000093;28;20248;-62
2021/09/28 13:07:32;;;;;;;1.40;1.30;;;;;;;17.99;100.00;101351.06;20999393;28;20325;-62
2021/09/28 13:17:35;;;;;;;1.30;1.20;;;;;;;18.19;100.00;101352.19;20998788;28;20270;-67
2021/09/28 13:27:39;;;;;;;1.20;1.20;;;;;;;18.39;100.00;101347.84;20997629;28;20222;-65
2021/09/28 13:37:41;;;;;;;1.40;1.30;;;;;;;18.40;100.00;101336.06;20997162;28;20236;-63
2021/09/28 13:47:45;;;;;;;1.40;1.30;;;;;;;18.10;100.00;101345.66;20994404;28;20230;-68
2021/09/28 13:57:47;;;;;;;2.57;1.40;;;;;;;17.99;100.00;101337.56;20995598;28;20810;-61
2021/09/28 14:07:51;;;;;;;2.23;1.60;;;;;;;17.77;100.00;101341.06;20992960;28;20227;-60
2021/09/28 14:17:53;;;;;;;1.67;1.57;;;;;;;17.34;100.00;101343.50;20993754;28;20238;-62
2021/09/28 14:27:57;;;;;;;1.63;1.53;;;;;;;17.15;100.00;101338.63;20960560;28;20314;-62
2021/09/28 14:38:00;;;;;;;1.60;1.50;;;;;;;16.82;100.00;101354.63;20979410;28;20226;-62
2021/09/28 14:48:09;;;;;;;2.07;1.30;;;;;;;16.55;100.00;101360.16;20961072;28;20638;-64
2021/09/28 14:58:13;;;;;;;2.27;1.50;;;;;;;16.12;100.00;101354.31;20973781;28;20231;-59
2021/09/28 15:08:17;;;;;;;1.60;1.50;;;;;;;15.70;100.00;101361.72;20966703;28;20233;-59
2021/09/28 15:18:20;;;;;;;1.90;1.60;;;;;;;15.28;100.00;101365.50;20963462;28;20233;-60
2021/09/28 15:28:26;;;;;;;2.27;2.17;;;;;;;14.81;100.00;101373.16;20973311;28;20256;-60
2021/09/28 15:38:47;;;;;;;8.57;5.03;;;;;;;14.39;100.00;101385.66;20952442;28;20230;-60
2021/09/28 15:48:53;;;;;;;8.73;4.77;;;;;;;14.05;100.00;101379.72;20973539;28;20236;-60
2021/09/28 15:58:57;;;;;;;17.47;7.70;;;;;;;13.78;100.00;101392.13;20959664;28;20229;-65
2021/09/28 16:09:01;;;;;;;4.17;2.70;;;;;;;13.53;100.00;101407.94;20978067;27;20704;-67
2021/09/28 16:19:04;;;;;;;15.87;6.57;;;;;;;13.24;100.00;101412.34;20970079;28;20326;-63
2021/09/28 16:29:07;;;;;;;4.50;3.00;;;;;;;12.91;100.00;101409.78;21039713;27;20666;-64
2021/09/28 16:39:10;;;;;;;7.33;4.10;;;;;;;12.59;100.00;101419.59;21020702;27;20325;-60
2021/09/28 16:49:14;;;;;;;4.63;3.00;;;;;;;12.24;100.00;101426.84;20976603;28;20310;-62
2021/09/28 16:59:16;;;;;;;3.00;1.90;;;;;;;12.02;100.00;101434.28;20983626;28;20296;-60
2021/09/28 17:09:20;;;;;;;2.17;2.07;;;;;;;11.83;100.00;101435.22;20992858;27;20237;-57
2021/09/28 17:19:22;;;;;;;3.00;2.70;;;;;;;11.71;100.00;101437.66;21069491;28;20229;-58
2021/09/28 17:29:26;;;;;;;3.13;2.90;;;;;;;11.55;100.00;101448.25;21008103;28;20233;-60
2021/09/28 17:49:27;;;;;;;2.97;2.77;;;;;;;11.28;100.00;101452.31;20940593;27;20752;-61
2021/09/28 17:59:30;;;;;;;2.83;2.60;;;;;;;11.09;100.00;101447.88;20924305;28;20230;-64
2021/09/28 18:09:36;;;;;;;3.10;2.70;;;;;;;10.84;100.00;101452.66;20925392;28;20893;-61
2021/09/28 18:19:39;;;;;;;4.90;3.80;;;;;;;10.72;100.00;101447.88;20913061;28;20301;-60
2021/09/28 18:29:45;;;;;;;4.03;3.60;;;;;;;10.52;100.00;101455.94;20933012;28;20324;-64
2021/09/28 18:39:54;;;;;;;3.27;3.07;;;;;;;10.23;100.00;101467.94;20904867;28;20316;-67
2021/09/28 18:50:12;;;;;;;4.10;3.73;;;;;;;9.91;100.00;101472.84;20883667;28;20226;-66
2021/09/28 19:00:20;;;;;;;3.67;3.37;;;;;;;9.73;100.00;101477.16;20863270;28;20234;-60
2021/09/28 19:10:25;;;;;;;4.00;3.70;;;;;;;9.55;100.00;101467.25;20881091;28;20251;-63
2021/09/28 19:20:34;;;;;;;4.47;4.13;;;;;;;9.38;100.00;101477.75;20846172;28;20250;-60
2021/09/28 19:30:38;;;;;;;4.40;4.00;;;;;;;9.29;100.00;101470.16;20870450;28;20234;-64
2021/09/28 19:40:44;;;;;;;4.30;3.90;;;;;;;9.27;100.00;101480.00;20916868;28;20754;-62
2021/09/28 19:50:54;;;;;;;4.00;3.70;;;;;;;9.09;100.00;101478.94;20907670;28;20259;-63
2021/09/28 20:42:26;;;;;;;4.50;4.07;;;;;;;8.60;100.00;101469.31;20925709;28;20234;-68
2021/09/28 20:52:31;;;;;;;5.47;4.10;;;;;;;8.69;100.00;101468.97;20908209;28;20222;-62
2021/09/28 21:02:38;;;;;;;5.83;4.10;;;;;;;8.72;100.00;101474.16;20922478;28;21656;-61
2021/09/28 21:12:41;;;;;;;4.60;4.20;;;;;;;8.72;100.00;101475.94;20907713;28;20229;-63
2021/09/28 21:22:44;;;;;;;4.73;4.33;;;;;;;8.77;100.00;101466.88;20896620;28;20310;-63
2021/09/28 21:32:54;;;;;;;5.47;4.33;;;;;;;8.94;100.00;101480.38;20877780;28;20651;-62
2021/09/28 21:42:57;;;;;;;4.40;4.10;;;;;;;8.99;100.00;101477.56;20899364;28;20727;-64
2021/09/28 21:53:01;;;;;;;4.93;4.53;;;;;;;8.99;100.00;101473.09;20883465;28;20230;-68
2021/09/28 22:03:03;;;;;;;5.63;5.07;;;;;;;9.09;100.00;101484.25;20908118;28;20317;-70
2021/09/28 22:13:08;;;;;;;4.70;4.30;;;;;;;9.10;100.00;101493.97;20894718;28;20766;-65
2021/09/28 22:33:10;;;;;;;5.60;5.10;;;;;;;8.89;100.00;101484.16;20996312;27;20637;-64
2021/09/28 22:43:13;;;;;;;5.63;5.00;;;;;;;8.79;100.00;101491.66;20940514;28;20213;-60
2021/09/28 22:53:16;;;;;;;5.90;5.30;;;;;;;8.70;100.00;101491.09;20962366;28;20260;-61
2021/09/28 23:03:19;;;;;;;5.43;4.93;;;;;;;8.64;100.00;101494.88;20950240;27;20249;-61
2021/09/28 23:13:22;;;;;;;6.77;5.70;;;;;;;8.58;100.00;101490.63;21038184;27;20324;-60
2021/09/28 23:23:25;;;;;;;5.33;4.93;;;;;;;8.47;100.00;101491.97;20962882;27;20234;-60
2021/09/28 23:43:25;;;;;;;6.07;5.57;;;;;;;8.12;100.00;101494.06;21058243;27;20996;-60
2021/09/28 23:53:28;;;;;;;6.00;5.50;;;;;;;7.95;100.00;101491.16;20962444;27;20228;-59
